createdAt,value
2019-01-26T00:00:43.681Z,170.50
2019-01-26T00:03:14.355Z,193.40
2019-01-26T00:05:45.009Z,156.17
2019-01-26T00:08:16.731Z,146.60
2019-01-26T00:10:47.415Z,174.82
2019-01-26T00:13:18.047Z,130.40
2019-01-26T00:15:48.610Z,139.07
2019-01-26T00:18:21.214Z,117.70
2019-01-26T00:20:51.777Z,81.33
2019-01-26T00:23:22.206Z,69.13
2019-01-26T00:25:52.770Z,91.20
2019-01-26T00:28:23.578Z,78.33
2019-01-26T00:30:54.127Z,92.33
2019-01-26T00:33:24.680Z,74.85
2019-01-26T00:35:55.183Z,65.70
2019-01-26T00:38:25.762Z,110.87
2019-01-26T00:40:56.363Z,107.30
2019-01-26T00:43:26.961Z,122.37
2019-01-26T00:45:57.566Z,159.37
2019-01-26T00:48:28.246Z,152.17
2019-01-26T00:50:59.020Z,179.30
2019-01-26T00:53:30.759Z,208.00
2019-01-26T00:56:02.777Z,201.07
2019-01-26T00:58:33.410Z,128.33
2019-01-26T01:01:04.243Z,129.33
2019-01-26T01:03:34.799Z,103.43
2019-01-26T01:06:05.340Z,165.47
2019-01-26T01:08:37.872Z,195.30
2019-01-26T01:11:08.412Z,176.30
2019-01-26T01:13:38.927Z,192.53
2019-01-26T01:16:09.360Z,148.27
2019-01-26T01:18:39.971Z,144.20
2019-01-26T01:21:10.541Z,117.73
2019-01-26T01:23:42.902Z,203.43
2019-01-26T01:26:13.447Z,138.97
2019-01-26T01:28:43.873Z,213.97
2019-01-26T01:31:14.349Z,146.50
2019-01-26T01:33:44.758Z,79.97
2019-01-26T01:36:15.486Z,198.13
2019-01-26T01:38:45.990Z,132.77
2019-01-26T01:41:16.343Z,100.03
2019-01-26T01:43:46.818Z,87.30
2019-01-26T01:46:17.394Z,96.03
2019-01-26T01:48:47.906Z,122.77
2019-01-26T01:51:18.695Z,236.32
2019-01-26T01:53:49.333Z,109.70
2019-01-26T01:56:19.826Z,104.55
2019-01-26T01:58:50.179Z,100.43
2019-01-26T02:01:20.514Z,128.60
2019-01-26T02:03:51.043Z,100.43
2019-01-26T02:06:21.601Z,88.37
2019-01-26T02:08:52.091Z,74.30
2019-01-26T02:11:22.932Z,65.53
2019-01-26T02:13:53.521Z,95.90
2019-01-26T02:16:24.138Z,70.67
2019-01-26T02:18:55.345Z,106.00
2019-01-26T02:21:25.944Z,154.80
2019-01-26T02:23:56.378Z,160.20
2019-01-26T02:26:26.897Z,106.10
2019-01-26T02:28:57.457Z,139.17
2019-01-26T02:31:28.133Z,108.97
2019-01-26T02:33:58.669Z,117.73
2019-01-26T02:36:29.116Z,145.65
2019-01-26T02:38:59.736Z,106.43
2019-01-26T02:41:33.969Z,119.20
2019-01-26T02:44:04.737Z,91.67
2019-01-26T02:46:35.326Z,101.43
2019-01-26T02:49:11.040Z,91.57
2019-01-26T02:51:44.394Z,93.47
2019-01-26T02:54:14.991Z,130.87
2019-01-26T02:56:45.785Z,54.03
2019-01-26T02:59:22.396Z,81.17
2019-01-26T03:01:52.931Z,61.20
2019-01-26T03:04:23.665Z,40.48
2019-01-26T03:06:55.282Z,53.50
2019-01-26T03:09:25.891Z,37.67
2019-01-26T03:11:56.475Z,30.17
2019-01-26T03:14:27.055Z,31.33
2019-01-26T03:16:57.633Z,44.43
2019-01-26T03:19:28.142Z,37.67
2019-01-26T03:21:58.828Z,40.67
2019-01-26T03:24:29.660Z,45.63
2019-01-26T03:27:03.056Z,38.47
2019-01-26T03:29:33.661Z,38.93
2019-01-26T03:32:04.449Z,49.43
2019-01-26T03:34:35.084Z,45.63
2019-01-26T03:37:07.178Z,40.53
2019-01-26T03:39:37.721Z,38.03
2019-01-26T03:42:08.351Z,43.40
2019-01-26T03:44:38.945Z,47.30
2019-01-26T03:47:13.845Z,38.90
2019-01-26T03:49:41.783Z,47.00
2019-01-26T03:52:15.408Z,42.73
2019-01-26T03:54:46.078Z,47.23
2019-01-26T03:57:16.578Z,41.80
2019-01-26T03:59:47.103Z,57.03
2019-01-26T04:02:17.505Z,45.48
2019-01-26T04:04:48.158Z,48.83
2019-01-26T04:07:21.724Z,40.07
2019-01-26T04:09:52.257Z,41.73
2019-01-26T04:12:24.811Z,46.25
2019-01-26T04:14:55.348Z,45.47
2019-01-26T04:17:25.937Z,41.37
2019-01-26T04:19:56.433Z,39.20
2019-01-26T04:22:27.058Z,42.17
2019-01-26T04:24:57.645Z,43.10
2019-01-26T04:27:29.166Z,45.30
2019-01-26T04:29:59.822Z,32.60
2019-01-26T04:32:30.365Z,40.63
2019-01-26T04:35:00.887Z,38.77
2019-01-26T04:37:31.476Z,39.70
2019-01-26T04:40:01.919Z,37.33
2019-01-26T04:42:32.311Z,33.57
2019-01-26T04:45:02.640Z,31.50
2019-01-26T04:47:33.344Z,41.63
2019-01-26T04:50:04.387Z,35.80
2019-01-26T04:52:34.991Z,37.55
2019-01-26T04:55:06.305Z,37.97
2019-01-26T04:57:36.813Z,30.90
2019-01-26T05:00:13.340Z,31.27
2019-01-26T05:02:43.741Z,34.80
2019-01-26T05:05:14.235Z,27.17
2019-01-26T05:07:44.593Z,24.50
2019-01-26T05:10:16.521Z,27.37
2019-01-26T05:12:47.130Z,29.63
2019-01-26T05:15:17.940Z,27.37
2019-01-26T05:17:48.328Z,29.57
2019-01-26T05:20:22.130Z,26.47
2019-01-26T05:22:52.544Z,34.87
2019-01-26T05:25:22.937Z,32.87
2019-01-26T05:27:53.331Z,32.80
2019-01-26T05:30:27.021Z,24.80
2019-01-26T05:33:04.716Z,30.40
2019-01-26T05:35:38.109Z,27.93
2019-01-26T05:38:08.527Z,28.17
2019-01-26T05:40:38.894Z,30.93
2019-01-26T05:43:09.293Z,35.73
2019-01-26T05:45:42.046Z,31.67
2019-01-26T05:48:12.498Z,34.33
2019-01-26T05:50:42.995Z,38.03
2019-01-26T05:53:13.463Z,38.33
2019-01-26T05:55:43.898Z,39.23
2019-01-26T05:58:14.472Z,37.57
2019-01-26T06:00:44.752Z,43.03
2019-01-26T06:03:15.030Z,40.52
2019-01-26T06:05:45.391Z,35.90
2019-01-26T06:08:15.694Z,33.53
2019-01-26T06:10:46.156Z,38.60
2019-01-26T06:13:16.445Z,36.25
2019-01-26T06:15:49.529Z,46.50
2019-01-26T06:18:19.873Z,37.35
2019-01-26T06:20:50.275Z,38.70
2019-01-26T06:23:23.674Z,36.88
2019-01-26T06:25:54.050Z,43.63
2019-01-26T06:28:24.423Z,43.38
2019-01-26T06:30:54.811Z,46.67
2019-01-26T06:33:25.254Z,34.47
2019-01-26T06:35:55.637Z,37.80
2019-01-26T06:38:28.183Z,40.40
2019-01-26T06:40:58.305Z,30.30
2019-01-26T06:43:28.719Z,38.73
2019-01-26T06:45:59.019Z,36.47
2019-01-26T06:48:29.436Z,41.90
2019-01-26T06:50:59.759Z,33.27
2019-01-26T06:53:30.046Z,36.27
2019-01-26T06:56:03.187Z,34.40
2019-01-26T06:58:33.661Z,31.43
2019-01-26T07:01:07.018Z,29.30
2019-01-26T07:03:37.403Z,30.33
2019-01-26T07:06:32.638Z,31.47
2019-01-26T07:09:05.379Z,35.67
2019-01-26T07:11:35.616Z,33.10
2019-01-26T07:14:07.171Z,34.80
2019-01-26T07:16:37.558Z,30.40
2019-01-26T07:19:07.954Z,33.20
2019-01-26T07:21:38.337Z,36.30
2019-01-26T07:24:08.789Z,32.67
2019-01-26T07:26:39.081Z,35.73
2019-01-26T07:29:09.365Z,32.53
2019-01-26T07:31:39.773Z,34.83
2019-01-26T07:34:10.119Z,36.13
2019-01-26T07:36:40.574Z,35.70
2019-01-26T07:39:13.723Z,32.90
2019-01-26T07:41:44.028Z,37.10
2019-01-26T07:44:14.406Z,41.33
2019-01-26T07:46:44.850Z,38.10
2019-01-26T07:49:15.190Z,36.75
2019-01-26T07:51:45.557Z,40.77
2019-01-26T07:54:19.783Z,41.43
2019-01-26T07:56:52.383Z,33.67
2019-01-26T07:59:22.842Z,46.50
2019-01-26T08:01:53.137Z,44.42
2019-01-26T08:04:23.661Z,35.40
2019-01-26T08:06:54.004Z,40.43
2019-01-26T08:09:24.575Z,34.43
2019-01-26T08:11:55.033Z,37.73
2019-01-26T08:14:25.201Z,38.03
2019-01-26T08:16:55.709Z,36.37
2019-01-26T08:19:26.236Z,37.75
2019-01-26T08:21:56.680Z,37.43
2019-01-26T08:24:26.955Z,41.90
2019-01-26T08:27:00.273Z,39.97
2019-01-26T08:29:32.080Z,34.57
2019-01-26T08:32:02.400Z,34.07
2019-01-26T08:34:32.981Z,44.93
2019-01-26T08:37:03.299Z,36.30
2019-01-26T08:39:34.845Z,40.83
2019-01-26T08:42:05.588Z,41.90
2019-01-26T08:44:35.896Z,37.17
2019-01-26T08:47:07.492Z,38.03
2019-01-26T08:49:37.781Z,37.53
2019-01-26T08:52:08.259Z,32.43
2019-01-26T08:54:38.664Z,38.57
2019-01-26T08:57:09.101Z,37.80
2019-01-26T08:59:41.041Z,37.87
2019-01-26T09:02:25.670Z,36.05
2019-01-26T09:04:57.285Z,37.00
2019-01-26T09:07:29.291Z,36.57
2019-01-26T09:10:02.533Z,29.83
2019-01-26T09:12:33.416Z,31.07
2019-01-26T09:15:03.856Z,34.27
2019-01-26T09:17:34.266Z,35.40
2019-01-26T09:20:05.307Z,33.00
2019-01-26T09:22:35.976Z,36.13
2019-01-26T09:25:09.245Z,38.48
2019-01-26T09:27:41.585Z,36.30
2019-01-26T09:30:12.062Z,39.95
2019-01-26T09:32:42.655Z,33.93
2019-01-26T09:35:13.069Z,40.63
2019-01-26T09:37:43.448Z,32.67
2019-01-26T09:40:14.177Z,34.00
2019-01-26T09:42:44.586Z,37.97
2019-01-26T09:45:16.195Z,25.20
2019-01-26T09:47:47.064Z,32.47
2019-01-26T09:50:19.303Z,30.90
2019-01-26T09:52:49.809Z,23.70
2019-01-26T09:55:20.336Z,31.62
2019-01-26T09:57:50.702Z,28.57
2019-01-26T10:00:21.254Z,29.30
2019-01-26T10:02:52.960Z,27.60
2019-01-26T10:05:23.457Z,33.85
2019-01-26T10:07:53.812Z,28.97
2019-01-26T10:10:24.929Z,31.77
2019-01-26T10:12:55.791Z,32.40
2019-01-26T10:15:27.323Z,32.03
2019-01-26T10:17:58.041Z,29.80
2019-01-26T10:20:31.217Z,27.60
2019-01-26T10:23:01.667Z,23.83
2019-01-26T10:25:34.561Z,24.30
2019-01-26T10:28:05.640Z,25.33
2019-01-26T10:30:41.847Z,19.30
2019-01-26T10:33:12.352Z,29.63
2019-01-26T10:36:18.438Z,28.53
2019-01-26T10:38:55.904Z,24.73
2019-01-26T10:41:39.194Z,20.73
2019-01-26T10:44:12.168Z,21.00
2019-01-26T10:46:42.686Z,27.77
2019-01-26T10:49:13.083Z,20.30
2019-01-26T10:51:43.466Z,24.10
2019-01-26T10:54:13.763Z,24.07
2019-01-26T10:56:44.143Z,26.03
2019-01-26T10:59:14.580Z,28.10
2019-01-26T11:01:45.032Z,26.83
2019-01-26T11:04:15.274Z,27.22
2019-01-26T11:06:46.701Z,24.60
2019-01-26T11:09:17.023Z,26.82
2019-01-26T11:11:47.547Z,20.10
2019-01-26T11:14:17.957Z,22.40
2019-01-26T11:16:51.257Z,19.97
2019-01-26T11:19:21.628Z,19.40
2019-01-26T11:21:52.115Z,18.77
2019-01-26T11:24:22.461Z,21.40
2019-01-26T11:26:55.350Z,25.70
2019-01-26T11:29:25.659Z,22.03
2019-01-26T11:31:57.144Z,31.07
2019-01-26T11:34:27.482Z,26.43
2019-01-26T11:36:58.135Z,28.33
2019-01-26T11:39:28.565Z,24.57
2019-01-26T11:41:58.937Z,27.90
2019-01-26T11:44:29.440Z,33.73
2019-01-26T11:47:04.764Z,29.50
2019-01-26T11:49:35.196Z,29.60
2019-01-26T11:52:14.790Z,35.17
2019-01-26T12:20:06.902Z,33.30
2019-01-26T12:23:12.744Z,33.57
2019-01-26T12:25:47.389Z,36.63
2019-01-26T12:32:16.418Z,35.90
2019-01-26T12:34:52.072Z,33.83
2019-01-26T12:37:24.217Z,39.03
2019-01-26T12:41:31.247Z,35.53
2019-01-26T12:47:50.483Z,35.27
2019-01-26T12:50:47.498Z,32.17
2019-01-26T13:02:06.086Z,22.57
2019-01-26T13:09:31.679Z,30.43
2019-01-26T13:12:15.797Z,26.00
2019-01-26T13:14:47.192Z,26.20
2019-01-26T13:17:17.925Z,27.05
2019-01-26T13:19:53.532Z,24.50
2019-01-26T13:22:27.225Z,25.82
2019-01-26T13:24:58.145Z,26.20
2019-01-26T13:27:28.894Z,22.93
2019-01-26T13:29:59.580Z,23.23
2019-01-26T13:32:30.179Z,27.27
2019-01-26T13:35:00.920Z,27.37
2019-01-26T13:37:31.469Z,25.03
2019-01-26T13:40:01.933Z,26.27
2019-01-26T13:42:33.626Z,26.03
2019-01-26T13:45:04.698Z,31.90
2019-01-26T13:47:38.032Z,34.67
2019-01-26T13:50:09.441Z,33.83
2019-01-26T13:52:39.932Z,39.27
2019-01-26T13:55:16.740Z,34.17
2019-01-26T13:57:47.280Z,33.20
2019-01-26T14:00:24.771Z,33.50
2019-01-26T14:02:56.402Z,34.65
2019-01-26T14:05:28.983Z,43.13
2019-01-26T14:07:59.495Z,30.17
2019-01-26T14:10:29.961Z,38.10
2019-01-26T14:13:00.472Z,30.30
2019-01-26T14:15:30.950Z,33.33
2019-01-26T14:18:05.182Z,39.50
2019-01-26T14:20:35.764Z,38.37
2019-01-26T14:23:07.084Z,31.77
2019-01-26T14:25:37.425Z,32.87
2019-01-26T14:28:10.621Z,33.37
2019-01-26T14:30:51.526Z,29.37
2019-01-26T14:33:21.943Z,39.67
2019-01-26T14:35:54.006Z,34.83
2019-01-26T14:38:24.708Z,42.60
2019-01-26T14:41:01.087Z,31.67
2019-01-26T14:43:31.763Z,31.37
2019-01-26T14:46:05.568Z,37.07
2019-01-26T14:48:36.191Z,36.83
2019-01-26T14:51:07.767Z,30.85
2019-01-26T14:53:39.839Z,34.58
2019-01-26T14:56:19.194Z,41.60
2019-01-26T14:58:56.698Z,35.48
2019-01-26T15:01:39.010Z,38.00
2019-01-26T15:04:20.957Z,40.63
2019-01-26T15:07:35.139Z,40.50
2019-01-26T15:10:19.192Z,48.60
2019-01-26T15:13:49.387Z,49.47
2019-01-26T15:16:41.772Z,43.47
2019-01-26T15:24:17.452Z,38.53
2019-01-26T15:27:01.995Z,37.60
2019-01-26T15:29:35.787Z,36.53
2019-01-26T15:32:19.145Z,37.40
2019-01-26T15:48:45.531Z,39.48
2019-01-26T15:55:14.089Z,45.87
2019-01-26T17:11:07.334Z,45.37
2019-01-26T17:17:37.488Z,38.73
2019-01-26T17:20:17.921Z,38.47
2019-01-26T17:22:48.963Z,38.53
2019-01-26T17:25:20.108Z,37.53
2019-01-26T17:28:24.211Z,38.97
2019-01-26T17:31:08.711Z,37.70
2019-01-26T17:34:16.606Z,39.27
2019-01-26T17:36:31.869Z,34.92
2019-01-26T17:39:25.154Z,41.27
2019-01-26T17:42:32.504Z,39.63
2019-01-26T17:45:22.519Z,36.07
2019-01-26T17:48:06.175Z,38.80
2019-01-26T17:50:42.088Z,37.13
2019-01-26T17:53:14.084Z,38.67
2019-01-26T17:55:45.008Z,44.90
2019-01-26T17:58:16.030Z,43.55
2019-01-26T18:00:59.290Z,42.20
2019-01-26T18:03:30.254Z,43.57
2019-01-26T18:06:02.686Z,36.90
2019-01-26T18:08:34.103Z,38.30
2019-01-26T18:11:04.905Z,37.23
2019-01-26T18:13:37.823Z,40.37
2019-01-26T18:16:09.674Z,31.97
2019-01-26T18:18:40.275Z,32.70
2019-01-26T18:21:12.066Z,32.13
2019-01-26T18:23:44.364Z,31.40
2019-01-26T18:26:15.724Z,30.13
2019-01-26T18:28:46.606Z,31.80
2019-01-26T18:31:17.170Z,32.08
2019-01-26T18:33:47.581Z,27.47
2019-01-26T18:36:18.662Z,31.12
2019-01-26T18:38:52.849Z,28.60
2019-01-26T18:41:23.425Z,30.05
2019-01-26T18:43:54.129Z,32.20
2019-01-26T18:46:28.426Z,31.13
2019-01-26T18:48:59.137Z,32.90
2019-01-26T18:51:29.659Z,29.63
2019-01-26T18:54:00.292Z,33.87
2019-01-26T18:56:32.167Z,32.23
2019-01-26T18:59:02.533Z,29.63
2019-01-26T19:01:33.299Z,30.20
2019-01-26T19:04:48.713Z,33.20
2019-01-26T19:07:19.261Z,36.83
2019-01-26T19:09:49.977Z,37.47
2019-01-26T19:12:20.429Z,33.25
2019-01-26T19:14:52.844Z,35.20
2019-01-26T19:17:29.486Z,34.20
2019-01-26T19:20:02.110Z,42.60
2019-01-26T19:22:32.980Z,36.13
2019-01-26T19:25:05.830Z,46.23
2019-01-26T19:27:36.425Z,41.20
2019-01-26T19:30:10.314Z,38.77
2019-01-26T19:32:40.868Z,41.90
2019-01-26T19:35:12.289Z,43.73
2019-01-26T19:37:42.846Z,38.53
2019-01-26T19:40:19.721Z,41.42
2019-01-26T19:42:53.333Z,46.80
2019-01-26T19:45:23.784Z,42.78
2019-01-26T19:47:54.391Z,39.43
2019-01-26T19:50:25.012Z,41.17
2019-01-26T19:52:57.760Z,47.47
2019-01-26T19:55:28.214Z,43.13
2019-01-26T19:57:58.695Z,47.27
2019-01-26T20:00:31.835Z,44.37
2019-01-26T20:03:03.435Z,40.50
2019-01-26T20:05:34.006Z,42.45
2019-01-26T20:08:04.482Z,47.50
2019-01-26T20:10:34.809Z,42.47
2019-01-26T20:13:05.511Z,44.60
2019-01-26T20:15:35.976Z,43.20
2019-01-26T20:18:07.271Z,52.37
2019-01-26T20:20:39.307Z,51.53
2019-01-26T20:23:10.875Z,49.03
2019-01-26T20:25:41.361Z,49.40
2019-01-26T20:28:11.959Z,51.70
2019-01-26T20:30:42.482Z,48.13
2019-01-26T20:33:12.911Z,48.63
2019-01-26T20:35:44.674Z,55.90
2019-01-26T20:38:15.104Z,56.43
2019-01-26T20:40:45.602Z,56.93
2019-01-26T20:43:15.976Z,54.83
2019-01-26T20:45:46.411Z,56.70
2019-01-26T20:48:20.026Z,58.40
2019-01-26T20:50:50.464Z,67.00
2019-01-26T20:53:20.866Z,69.30
2019-01-26T20:55:52.786Z,67.07
2019-01-26T20:58:23.234Z,65.60
2019-01-26T21:00:53.692Z,75.90
2019-01-26T21:03:24.085Z,72.75
2019-01-26T21:05:57.492Z,85.10
2019-01-26T21:08:28.016Z,80.10
2019-01-26T21:10:58.449Z,79.67
2019-01-26T21:13:28.826Z,77.80
2019-01-26T21:15:59.229Z,77.60
2019-01-26T21:18:29.668Z,92.03
2019-01-26T21:21:03.328Z,79.47
2019-01-26T21:23:35.561Z,71.67
2019-01-26T21:26:07.265Z,80.87
2019-01-26T21:28:37.624Z,75.37
2019-01-26T21:31:12.398Z,82.13
2019-01-26T21:33:44.093Z,78.57
2019-01-26T21:36:25.601Z,68.60
2019-01-26T21:38:57.807Z,62.63
2019-01-26T21:41:38.052Z,63.93
2019-01-26T21:44:23.150Z,64.67
2019-01-26T21:46:55.755Z,66.80
2019-01-26T21:49:29.005Z,62.50
2019-01-26T21:52:04.859Z,57.73
2019-01-26T21:54:35.803Z,58.60
2019-01-26T21:57:07.950Z,66.95
2019-01-26T21:59:39.204Z,56.08
2019-01-26T22:02:10.243Z,59.73
2019-01-26T22:04:41.187Z,61.20
2019-01-26T22:07:14.999Z,61.18
2019-01-26T22:09:46.945Z,56.03
2019-01-26T22:12:19.380Z,54.00
2019-01-26T22:14:55.556Z,54.43
2019-01-26T22:18:16.956Z,52.30
2019-01-26T22:22:00.419Z,52.77
2019-01-26T22:24:26.659Z,57.13
2019-01-26T22:26:57.262Z,49.83
2019-01-26T22:29:50.781Z,47.17
2019-01-26T22:38:16.446Z,40.93
2019-01-26T22:45:53.433Z,44.37
2019-01-26T22:50:14.950Z,39.83
2019-01-26T23:29:02.042Z,38.27
2019-01-26T23:32:10.829Z,37.42
2019-01-26T23:47:21.462Z,37.40
2019-01-26T23:50:51.755Z,33.80
2019-01-26T23:52:58.264Z,38.60
2019-01-26T23:55:29.004Z,36.60
2019-01-26T23:58:09.420Z,33.10
